UKON/NLV METAR and TAF weather

Enter ICAO airport designator
Station Type Date Time Source
UKON METAR 2021/05/06 14:00 UTC NOAA

UKON 061400Z 22006MPS 9999 SCT///CB 15/08 Q1011 R22/090075 NOSIG


Station Type Date Time Source
UKON Decoded METAR 2021/05/06 14:00 UTC NOAA

Mykolaiv, Ukraine (UKON) 47-03-29N 031-55-15E
May 06, 2021 - 10:00 AM EDT / 2021.05.06 1400 UTC
Wind: from the SW (220 degrees) at 13 MPH (12 KT):0
Visibility: greater than 7 mile(s):0
Sky conditions: partly cloudy
Weather: Cumulonimbus clouds observed
Temperature: 59 F (15 C)
Dew Point: 46 F (8 C)
Relative Humidity: 62%
Pressure (altimeter): 29.85 in. Hg (1011 hPa)
ob: UKON 061400Z 22006MPS 9999 SCT///CB 15/08 Q1011 R22/090075 NOSIG
cycle: 14

Station Type Date Time Source
UKON TAF 2018/11/06 15:06 UTC NOAA

TAF
AMD TAF
AMD UKON 061502Z 0615/0724 CNL

Example: see airport list